sensor_id;sensor_type;location;lat;lon;timestamp;temperature;humidity
11617;DHT22;5864;52.998;9.068;2022-11-25T00:02:10;4.50;99.90
11617;DHT22;5864;52.998;9.068;2022-11-25T00:04:39;4.40;99.90
11617;DHT22;5864;52.998;9.068;2022-11-25T00:07:06;4.40;99.90
11617;DHT22;5864;52.998;9.068;2022-11-25T00:09:34;4.40;99.90
11617;DHT22;5864;52.998;9.068;2022-11-25T00:12:01;4.30;99.90
11617;DHT22;5864;52.998;9.068;2022-11-25T00:14:29;4.30;99.90
11617;DHT22;5864;52.998;9.068;2022-11-25T00:16:56;4.30;99.90
11617;DHT22;5864;52.998;9.068;2022-11-25T00:19:24;4.30;99.90
11617;DHT22;5864;52.998;9.068;2022-11-25T00:21:53;4.30;99.90
11617;DHT22;5864;52.998;9.068;2022-11-25T00:24:20;4.20;99.90
11617;DHT22;5864;52.998;9.068;2022-11-25T00:26:48;4.20;99.90
11617;DHT22;5864;52.998;9.068;2022-11-25T00:29:15;4.20;99.90
11617;DHT22;5864;52.998;9.068;2022-11-25T00:31:43;4.20;99.90
11617;DHT22;5864;52.998;9.068;2022-11-25T00:34:12;4.20;99.90
11617;DHT22;5864;52.998;9.068;2022-11-25T00:36:40;4.20;99.90
11617;DHT22;5864;52.998;9.068;2022-11-25T00:39:11;4.20;99.90
11617;DHT22;5864;52.998;9.068;2022-11-25T00:41:39;4.20;99.90
11617;DHT22;5864;52.998;9.068;2022-11-25T00:44:24;4.10;99.90
11617;DHT22;5864;52.998;9.068;2022-11-25T00:47:06;4.10;99.90
11617;DHT22;5864;52.998;9.068;2022-11-25T00:49:35;4.10;99.90
11617;DHT22;5864;52.998;9.068;2022-11-25T00:52:03;4.10;99.90
11617;DHT22;5864;52.998;9.068;2022-11-25T00:54:32;4.10;99.90
11617;DHT22;5864;52.998;9.068;2022-11-25T00:57:00;4.10;99.90
11617;DHT22;5864;52.998;9.068;2022-11-25T00:59:27;4.20;99.90
11617;DHT22;5864;52.998;9.068;2022-11-25T01:01:55;4.10;99.90
11617;DHT22;5864;52.998;9.068;2022-11-25T01:04:23;4.10;99.90
11617;DHT22;5864;52.998;9.068;2022-11-25T01:06:50;4.10;99.90
11617;DHT22;5864;52.998;9.068;2022-11-25T01:09:19;4.10;99.90
11617;DHT22;5864;52.998;9.068;2022-11-25T01:11:50;4.10;99.90
11617;DHT22;5864;52.998;9.068;2022-11-25T01:14:18;4.10;99.90
11617;DHT22;5864;52.998;9.068;2022-11-25T01:16:46;4.10;99.90
11617;DHT22;5864;52.998;9.068;2022-11-25T01:19:13;4.10;99.90
11617;DHT22;5864;52.998;9.068;2022-11-25T01:21:41;4.00;99.90
11617;DHT22;5864;52.998;9.068;2022-11-25T01:24:09;4.00;99.90
11617;DHT22;5864;52.998;9.068;2022-11-25T01:26:38;4.10;99.90
11617;DHT22;5864;52.998;9.068;2022-11-25T01:29:12;4.10;99.90
11617;DHT22;5864;52.998;9.068;2022-11-25T01:31:40;4.00;99.90
11617;DHT22;5864;52.998;9.068;2022-11-25T01:34:11;3.90;99.90
11617;DHT22;5864;52.998;9.068;2022-11-25T01:36:39;4.00;99.90
11617;DHT22;5864;52.998;9.068;2022-11-25T01:39:07;4.00;99.90
11617;DHT22;5864;52.998;9.068;2022-11-25T01:41:35;3.90;99.90
11617;DHT22;5864;52.998;9.068;2022-11-25T01:44:22;3.90;99.90
11617;DHT22;5864;52.998;9.068;2022-11-25T01:46:57;4.00;99.90
11617;DHT22;5864;52.998;9.068;2022-11-25T01:49:30;4.10;99.90
11617;DHT22;5864;52.998;9.068;2022-11-25T01:52:03;4.00;99.90
11617;DHT22;5864;52.998;9.068;2022-11-25T01:54:34;4.00;99.90
11617;DHT22;5864;52.998;9.068;2022-11-25T01:57:06;4.00;99.90
11617;DHT22;5864;52.998;9.068;2022-11-25T01:59:40;3.90;99.90
11617;DHT22;5864;52.998;9.068;2022-11-25T02:02:10;3.90;99.90
11617;DHT22;5864;52.998;9.068;2022-11-25T02:04:39;3.90;99.90
11617;DHT22;5864;52.998;9.068;2022-11-25T02:07:11;3.90;99.90
11617;DHT22;5864;52.998;9.068;2022-11-25T02:09:41;3.90;99.90
11617;DHT22;5864;52.998;9.068;2022-11-25T02:12:09;4.00;99.90
11617;DHT22;5864;52.998;9.068;2022-11-25T02:14:39;4.00;99.90
11617;DHT22;5864;52.998;9.068;2022-11-25T02:17:07;4.00;99.90
11617;DHT22;5864;52.998;9.068;2022-11-25T02:19:45;4.00;99.90
11617;DHT22;5864;52.998;9.068;2022-11-25T02:22:21;4.00;99.90
11617;DHT22;5864;52.998;9.068;2022-11-25T02:24:53;4.00;99.90
11617;DHT22;5864;52.998;9.068;2022-11-25T02:27:23;4.00;99.90
11617;DHT22;5864;52.998;9.068;2022-11-25T02:29:51;3.90;99.90
11617;DHT22;5864;52.998;9.068;2022-11-25T02:32:20;3.90;99.90
11617;DHT22;5864;52.998;9.068;2022-11-25T02:34:49;3.90;99.90
11617;DHT22;5864;52.998;9.068;2022-11-25T02:37:18;4.00;99.90
11617;DHT22;5864;52.998;9.068;2022-11-25T02:39:46;4.00;99.90
11617;DHT22;5864;52.998;9.068;2022-11-25T02:42:16;4.00;99.90
11617;DHT22;5864;52.998;9.068;2022-11-25T02:44:48;4.00;99.90
11617;DHT22;5864;52.998;9.068;2022-11-25T02:47:16;4.00;99.90
11617;DHT22;5864;52.998;9.068;2022-11-25T02:49:43;4.00;99.90
11617;DHT22;5864;52.998;9.068;2022-11-25T02:52:11;4.00;99.90
11617;DHT22;5864;52.998;9.068;2022-11-25T02:54:38;4.00;99.90
11617;DHT22;5864;52.998;9.068;2022-11-25T02:57:06;3.90;99.90
11617;DHT22;5864;52.998;9.068;2022-11-25T02:59:33;3.90;99.90
11617;DHT22;5864;52.998;9.068;2022-11-25T03:02:02;3.90;99.90
11617;DHT22;5864;52.998;9.068;2022-11-25T03:04:29;3.90;99.90
11617;DHT22;5864;52.998;9.068;2022-11-25T03:06:57;3.90;99.90
11617;DHT22;5864;52.998;9.068;2022-11-25T03:09:24;3.90;99.90
11617;DHT22;5864;52.998;9.068;2022-11-25T03:11:52;3.90;99.90
11617;DHT22;5864;52.998;9.068;2022-11-25T03:14:37;4.00;99.90
11617;DHT22;5864;52.998;9.068;2022-11-25T03:17:06;4.00;99.90
11617;DHT22;5864;52.998;9.068;2022-11-25T03:19:33;3.90;99.90
11617;DHT22;5864;52.998;9.068;2022-11-25T03:22:01;3.90;99.90
11617;DHT22;5864;52.998;9.068;2022-11-25T03:24:29;4.00;99.90
11617;DHT22;5864;52.998;9.068;2022-11-25T03:26:56;3.90;99.90
11617;DHT22;5864;52.998;9.068;2022-11-25T03:29:24;3.90;99.90
11617;DHT22;5864;52.998;9.068;2022-11-25T03:31:51;3.90;99.90
11617;DHT22;5864;52.998;9.068;2022-11-25T03:34:20;3.90;99.90
11617;DHT22;5864;52.998;9.068;2022-11-25T03:36:48;3.80;99.90
11617;DHT22;5864;52.998;9.068;2022-11-25T03:39:15;3.90;99.90
11617;DHT22;5864;52.998;9.068;2022-11-25T03:41:43;3.90;99.90
11617;DHT22;5864;52.998;9.068;2022-11-25T03:44:10;3.80;99.90
11617;DHT22;5864;52.998;9.068;2022-11-25T03:46:38;3.80;99.90
11617;DHT22;5864;52.998;9.068;2022-11-25T03:49:05;3.80;99.90
11617;DHT22;5864;52.998;9.068;2022-11-25T03:51:34;3.90;99.90
11617;DHT22;5864;52.998;9.068;2022-11-25T03:54:02;3.80;99.90
11617;DHT22;5864;52.998;9.068;2022-11-25T03:56:29;3.80;99.90
11617;DHT22;5864;52.998;9.068;2022-11-25T03:58:57;3.80;99.90
11617;DHT22;5864;52.998;9.068;2022-11-25T04:01:24;3.80;99.90
11617;DHT22;5864;52.998;9.068;2022-11-25T04:03:51;3.80;99.90
11617;DHT22;5864;52.998;9.068;2022-11-25T04:06:19;3.90;99.90
11617;DHT22;5864;52.998;9.068;2022-11-25T04:08:50;3.80;99.90
11617;DHT22;5864;52.998;9.068;2022-11-25T04:11:17;3.80;99.90
11617;DHT22;5864;52.998;9.068;2022-11-25T04:13:45;3.90;99.90
11617;DHT22;5864;52.998;9.068;2022-11-25T04:16:20;3.90;99.90
11617;DHT22;5864;52.998;9.068;2022-11-25T04:18:48;3.90;99.90
11617;DHT22;5864;52.998;9.068;2022-11-25T04:21:16;3.90;99.90
11617;DHT22;5864;52.998;9.068;2022-11-25T04:23:43;4.00;99.90
11617;DHT22;5864;52.998;9.068;2022-11-25T04:26:12;4.00;99.90
11617;DHT22;5864;52.998;9.068;2022-11-25T04:28:40;4.00;99.90
11617;DHT22;5864;52.998;9.068;2022-11-25T04:31:08;4.10;99.90
11617;DHT22;5864;52.998;9.068;2022-11-25T04:33:35;4.10;99.90
11617;DHT22;5864;52.998;9.068;2022-11-25T04:36:03;4.10;99.90
11617;DHT22;5864;52.998;9.068;2022-11-25T04:38:31;4.20;99.90
11617;DHT22;5864;52.998;9.068;2022-11-25T04:40:58;4.10;99.90
11617;DHT22;5864;52.998;9.068;2022-11-25T04:43:27;4.20;99.90
11617;DHT22;5864;52.998;9.068;2022-11-25T04:45:55;4.20;99.90
11617;DHT22;5864;52.998;9.068;2022-11-25T04:48:22;4.20;99.90
11617;DHT22;5864;52.998;9.068;2022-11-25T04:50:50;4.20;99.90
11617;DHT22;5864;52.998;9.068;2022-11-25T04:53:17;4.20;99.90
11617;DHT22;5864;52.998;9.068;2022-11-25T04:55:45;4.20;99.90
11617;DHT22;5864;52.998;9.068;2022-11-25T04:58:13;4.20;99.90
11617;DHT22;5864;52.998;9.068;2022-11-25T05:01:02;4.20;99.90
11617;DHT22;5864;52.998;9.068;2022-11-25T05:03:28;4.20;99.90
11617;DHT22;5864;52.998;9.068;2022-11-25T05:05:56;4.20;99.90
11617;DHT22;5864;52.998;9.068;2022-11-25T05:08:24;4.20;99.90
11617;DHT22;5864;52.998;9.068;2022-11-25T05:10:51;4.30;99.90
11617;DHT22;5864;52.998;9.068;2022-11-25T05:13:19;4.30;99.90
11617;DHT22;5864;52.998;9.068;2022-11-25T05:15:46;4.20;99.90
11617;DHT22;5864;52.998;9.068;2022-11-25T05:18:15;4.30;99.90
11617;DHT22;5864;52.998;9.068;2022-11-25T05:20:43;4.30;99.90
11617;DHT22;5864;52.998;9.068;2022-11-25T05:23:10;4.30;99.90
11617;DHT22;5864;52.998;9.068;2022-11-25T05:25:38;4.40;99.90
11617;DHT22;5864;52.998;9.068;2022-11-25T05:28:05;4.40;99.90
11617;DHT22;5864;52.998;9.068;2022-11-25T05:30:33;4.50;99.90
11617;DHT22;5864;52.998;9.068;2022-11-25T05:33:00;4.50;99.90
11617;DHT22;5864;52.998;9.068;2022-11-25T05:35:29;4.50;99.90
11617;DHT22;5864;52.998;9.068;2022-11-25T05:37:58;4.60;99.90
11617;DHT22;5864;52.998;9.068;2022-11-25T05:40:30;4.60;99.90
11617;DHT22;5864;52.998;9.068;2022-11-25T05:43:00;4.60;99.90
11617;DHT22;5864;52.998;9.068;2022-11-25T05:45:29;4.60;99.90
11617;DHT22;5864;52.998;9.068;2022-11-25T05:47:56;4.60;99.90
11617;DHT22;5864;52.998;9.068;2022-11-25T05:50:24;4.60;99.90
11617;DHT22;5864;52.998;9.068;2022-11-25T05:52:53;4.60;99.90
11617;DHT22;5864;52.998;9.068;2022-11-25T05:55:20;4.60;99.90
11617;DHT22;5864;52.998;9.068;2022-11-25T05:57:48;4.60;99.90
11617;DHT22;5864;52.998;9.068;2022-11-25T06:00:16;4.60;99.90
11617;DHT22;5864;52.998;9.068;2022-11-25T06:02:44;4.60;99.90
11617;DHT22;5864;52.998;9.068;2022-11-25T06:05:11;4.60;99.90
11617;DHT22;5864;52.998;9.068;2022-11-25T06:07:39;4.60;99.90
11617;DHT22;5864;52.998;9.068;2022-11-25T06:10:08;4.60;99.90
11617;DHT22;5864;52.998;9.068;2022-11-25T06:12:36;4.60;99.90
11617;DHT22;5864;52.998;9.068;2022-11-25T06:15:04;4.60;99.90
11617;DHT22;5864;52.998;9.068;2022-11-25T06:17:32;4.70;99.90
11617;DHT22;5864;52.998;9.068;2022-11-25T06:20:00;4.70;99.90
11617;DHT22;5864;52.998;9.068;2022-11-25T06:22:27;4.70;99.90
11617;DHT22;5864;52.998;9.068;2022-11-25T06:24:55;4.70;99.90
11617;DHT22;5864;52.998;9.068;2022-11-25T06:27:23;4.70;99.90
11617;DHT22;5864;52.998;9.068;2022-11-25T06:29:51;4.70;99.90
11617;DHT22;5864;52.998;9.068;2022-11-25T06:32:19;4.70;99.90
11617;DHT22;5864;52.998;9.068;2022-11-25T06:34:46;4.70;99.90
11617;DHT22;5864;52.998;9.068;2022-11-25T06:37:14;4.80;99.90
11617;DHT22;5864;52.998;9.068;2022-11-25T06:39:42;4.70;99.90
11617;DHT22;5864;52.998;9.068;2022-11-25T06:42:10;4.70;99.90
11617;DHT22;5864;52.998;9.068;2022-11-25T06:44:39;4.70;99.90
11617;DHT22;5864;52.998;9.068;2022-11-25T06:47:06;4.80;99.90
11617;DHT22;5864;52.998;9.068;2022-11-25T06:49:34;4.80;99.90
11617;DHT22;5864;52.998;9.068;2022-11-25T06:52:01;4.80;99.90
11617;DHT22;5864;52.998;9.068;2022-11-25T06:54:29;4.80;99.90
11617;DHT22;5864;52.998;9.068;2022-11-25T06:56:56;4.80;99.90
11617;DHT22;5864;52.998;9.068;2022-11-25T06:59:24;4.80;99.90
11617;DHT22;5864;52.998;9.068;2022-11-25T07:01:53;4.80;99.90
11617;DHT22;5864;52.998;9.068;2022-11-25T07:04:21;4.80;99.90
11617;DHT22;5864;52.998;9.068;2022-11-25T07:06:49;4.80;99.90
11617;DHT22;5864;52.998;9.068;2022-11-25T07:09:16;4.80;99.90
11617;DHT22;5864;52.998;9.068;2022-11-25T07:11:45;4.80;99.90
11617;DHT22;5864;52.998;9.068;2022-11-25T07:14:14;4.80;99.90
11617;DHT22;5864;52.998;9.068;2022-11-25T07:16:43;4.80;99.90
11617;DHT22;5864;52.998;9.068;2022-11-25T07:19:15;4.80;99.90
11617;DHT22;5864;52.998;9.068;2022-11-25T07:21:44;4.80;99.90
11617;DHT22;5864;52.998;9.068;2022-11-25T07:24:14;4.80;99.90
11617;DHT22;5864;52.998;9.068;2022-11-25T07:26:42;4.80;99.90
11617;DHT22;5864;52.998;9.068;2022-11-25T07:29:12;4.90;99.90
11617;DHT22;5864;52.998;9.068;2022-11-25T07:31:41;4.80;99.90
11617;DHT22;5864;52.998;9.068;2022-11-25T07:34:11;4.80;99.90
11617;DHT22;5864;52.998;9.068;2022-11-25T07:36:40;4.90;99.90
11617;DHT22;5864;52.998;9.068;2022-11-25T07:39:11;4.90;99.90
11617;DHT22;5864;52.998;9.068;2022-11-25T07:41:39;4.90;99.90
11617;DHT22;5864;52.998;9.068;2022-11-25T07:44:09;4.90;99.90
11617;DHT22;5864;52.998;9.068;2022-11-25T07:46:38;4.90;99.90
11617;DHT22;5864;52.998;9.068;2022-11-25T07:49:08;4.90;99.90
11617;DHT22;5864;52.998;9.068;2022-11-25T07:51:38;5.00;99.90
11617;DHT22;5864;52.998;9.068;2022-11-25T07:54:10;5.00;99.90
11617;DHT22;5864;52.998;9.068;2022-11-25T07:56:40;5.00;99.90
11617;DHT22;5864;52.998;9.068;2022-11-25T07:59:11;5.00;99.90
11617;DHT22;5864;52.998;9.068;2022-11-25T08:01:39;5.10;99.90
11617;DHT22;5864;52.998;9.068;2022-11-25T08:04:09;5.10;99.90
11617;DHT22;5864;52.998;9.068;2022-11-25T08:06:38;5.10;99.90
11617;DHT22;5864;52.998;9.068;2022-11-25T08:09:11;5.00;99.90
11617;DHT22;5864;52.998;9.068;2022-11-25T08:11:39;5.00;99.90
11617;DHT22;5864;52.998;9.068;2022-11-25T08:14:06;5.00;99.90
11617;DHT22;5864;52.998;9.068;2022-11-25T08:16:35;5.10;99.90
11617;DHT22;5864;52.998;9.068;2022-11-25T08:19:05;5.10;99.90
11617;DHT22;5864;52.998;9.068;2022-11-25T08:21:33;5.10;99.90
11617;DHT22;5864;52.998;9.068;2022-11-25T08:24:00;5.10;99.90
11617;DHT22;5864;52.998;9.068;2022-11-25T08:26:31;5.20;99.90
11617;DHT22;5864;52.998;9.068;2022-11-25T08:29:01;5.20;99.90
11617;DHT22;5864;52.998;9.068;2022-11-25T08:31:30;5.20;99.90
11617;DHT22;5864;52.998;9.068;2022-11-25T08:33:58;5.20;99.90
11617;DHT22;5864;52.998;9.068;2022-11-25T08:36:28;5.20;99.90
11617;DHT22;5864;52.998;9.068;2022-11-25T08:38:57;5.20;99.90
11617;DHT22;5864;52.998;9.068;2022-11-25T08:41:28;5.20;99.90
11617;DHT22;5864;52.998;9.068;2022-11-25T08:43:58;5.20;99.90
11617;DHT22;5864;52.998;9.068;2022-11-25T08:46:28;5.30;99.90
11617;DHT22;5864;52.998;9.068;2022-11-25T08:48:56;5.30;99.90
11617;DHT22;5864;52.998;9.068;2022-11-25T08:51:27;5.30;99.90
11617;DHT22;5864;52.998;9.068;2022-11-25T08:53:56;5.30;99.90
11617;DHT22;5864;52.998;9.068;2022-11-25T08:56:24;5.30;99.90
11617;DHT22;5864;52.998;9.068;2022-11-25T08:58:52;5.40;99.90
11617;DHT22;5864;52.998;9.068;2022-11-25T09:01:22;5.40;99.90
11617;DHT22;5864;52.998;9.068;2022-11-25T09:03:52;5.40;99.90
11617;DHT22;5864;52.998;9.068;2022-11-25T09:06:20;5.40;99.90
11617;DHT22;5864;52.998;9.068;2022-11-25T09:08:48;5.50;99.90
11617;DHT22;5864;52.998;9.068;2022-11-25T09:11:15;5.40;99.90
11617;DHT22;5864;52.998;9.068;2022-11-25T09:13:43;5.50;99.90
11617;DHT22;5864;52.998;9.068;2022-11-25T09:16:10;5.50;99.90
11617;DHT22;5864;52.998;9.068;2022-11-25T09:18:39;5.50;99.90
11617;DHT22;5864;52.998;9.068;2022-11-25T09:21:08;5.50;99.90
11617;DHT22;5864;52.998;9.068;2022-11-25T09:23:37;5.50;99.90
11617;DHT22;5864;52.998;9.068;2022-11-25T09:26:06;5.60;99.90
11617;DHT22;5864;52.998;9.068;2022-11-25T09:28:34;5.60;99.90
11617;DHT22;5864;52.998;9.068;2022-11-25T09:31:07;5.60;99.90
11617;DHT22;5864;52.998;9.068;2022-11-25T09:33:34;5.60;99.90
11617;DHT22;5864;52.998;9.068;2022-11-25T09:36:03;5.60;99.90
11617;DHT22;5864;52.998;9.068;2022-11-25T09:38:32;5.70;99.90
11617;DHT22;5864;52.998;9.068;2022-11-25T09:41:01;5.70;99.90
11617;DHT22;5864;52.998;9.068;2022-11-25T09:43:39;5.70;99.90
11617;DHT22;5864;52.998;9.068;2022-11-25T09:46:43;5.80;99.90
11617;DHT22;5864;52.998;9.068;2022-11-25T09:49:26;5.80;99.90
11617;DHT22;5864;52.998;9.068;2022-11-25T09:52:06;5.80;99.90
11617;DHT22;5864;52.998;9.068;2022-11-25T09:54:37;5.80;99.90
11617;DHT22;5864;52.998;9.068;2022-11-25T09:57:18;5.80;99.90
11617;DHT22;5864;52.998;9.068;2022-11-25T09:59:56;5.90;99.90
11617;DHT22;5864;52.998;9.068;2022-11-25T10:02:29;7.10;99.90
11617;DHT22;5864;52.998;9.068;2022-11-25T10:05:04;6.00;99.90
11617;DHT22;5864;52.998;9.068;2022-11-25T10:07:38;6.00;99.90
11617;DHT22;5864;52.998;9.068;2022-11-25T10:10:17;6.10;99.90
11617;DHT22;5864;52.998;9.068;2022-11-25T10:12:46;6.10;99.90
11617;DHT22;5864;52.998;9.068;2022-11-25T10:15:19;6.20;99.90
11617;DHT22;5864;52.998;9.068;2022-11-25T10:17:51;6.30;99.90
11617;DHT22;5864;52.998;9.068;2022-11-25T10:20:21;6.30;99.90
11617;DHT22;5864;52.998;9.068;2022-11-25T10:22:53;6.30;99.90
11617;DHT22;5864;52.998;9.068;2022-11-25T10:25:23;6.30;99.90
11617;DHT22;5864;52.998;9.068;2022-11-25T10:27:55;6.40;99.90
11617;DHT22;5864;52.998;9.068;2022-11-25T10:30:29;6.40;99.90
11617;DHT22;5864;52.998;9.068;2022-11-25T10:33:03;6.40;99.90
11617;DHT22;5864;52.998;9.068;2022-11-25T10:35:34;6.50;99.90
11617;DHT22;5864;52.998;9.068;2022-11-25T10:38:10;6.60;99.90
11617;DHT22;5864;52.998;9.068;2022-11-25T10:40:42;6.60;99.90
11617;DHT22;5864;52.998;9.068;2022-11-25T10:43:11;6.60;99.90
11617;DHT22;5864;52.998;9.068;2022-11-25T10:45:46;6.70;99.90
11617;DHT22;5864;52.998;9.068;2022-11-25T10:48:24;6.80;99.90
11617;DHT22;5864;52.998;9.068;2022-11-25T10:51:04;6.80;99.90
11617;DHT22;5864;52.998;9.068;2022-11-25T10:53:35;6.90;99.90
11617;DHT22;5864;52.998;9.068;2022-11-25T10:56:09;6.90;99.90
11617;DHT22;5864;52.998;9.068;2022-11-25T10:58:39;7.00;99.90
11617;DHT22;5864;52.998;9.068;2022-11-25T11:01:14;7.00;99.90
11617;DHT22;5864;52.998;9.068;2022-11-25T11:03:44;7.10;99.90
11617;DHT22;5864;52.998;9.068;2022-11-25T11:06:32;7.00;99.90
11617;DHT22;5864;52.998;9.068;2022-11-25T11:09:03;7.00;99.90
11617;DHT22;5864;52.998;9.068;2022-11-25T11:11:45;7.10;99.90
11617;DHT22;5864;52.998;9.068;2022-11-25T11:14:18;7.10;99.90
11617;DHT22;5864;52.998;9.068;2022-11-25T11:16:52;7.10;99.90
11617;DHT22;5864;52.998;9.068;2022-11-25T11:19:21;7.10;99.90
11617;DHT22;5864;52.998;9.068;2022-11-25T11:21:49;7.10;99.90
11617;DHT22;5864;52.998;9.068;2022-11-25T11:24:27;7.20;99.90
11617;DHT22;5864;52.998;9.068;2022-11-25T11:27:03;7.20;99.90
11617;DHT22;5864;52.998;9.068;2022-11-25T11:29:30;7.30;99.90
11617;DHT22;5864;52.998;9.068;2022-11-25T11:32:00;7.30;99.90
11617;DHT22;5864;52.998;9.068;2022-11-25T11:34:42;7.30;99.90
11617;DHT22;5864;52.998;9.068;2022-11-25T11:37:27;7.30;99.90
11617;DHT22;5864;52.998;9.068;2022-11-25T11:40:27;7.40;99.90
11617;DHT22;5864;52.998;9.068;2022-11-25T11:45:57;8.90;99.90
11617;DHT22;5864;52.998;9.068;2022-11-25T11:48:34;7.60;99.90
11617;DHT22;5864;52.998;9.068;2022-11-25T11:51:13;7.70;99.90
11617;DHT22;5864;52.998;9.068;2022-11-25T11:53:53;7.80;99.90
11617;DHT22;5864;52.998;9.068;2022-11-25T11:56:32;7.90;99.90
11617;DHT22;5864;52.998;9.068;2022-11-25T11:59:25;7.90;99.90
11617;DHT22;5864;52.998;9.068;2022-11-25T12:02:14;8.00;99.90
11617;DHT22;5864;52.998;9.068;2022-11-25T12:04:46;8.00;99.90
11617;DHT22;5864;52.998;9.068;2022-11-25T12:07:21;8.10;99.90
11617;DHT22;5864;52.998;9.068;2022-11-25T12:09:54;8.20;99.90
11617;DHT22;5864;52.998;9.068;2022-11-25T12:12:32;8.30;99.90
11617;DHT22;5864;52.998;9.068;2022-11-25T12:15:05;8.30;99.90
11617;DHT22;5864;52.998;9.068;2022-11-25T12:17:41;8.40;99.90
11617;DHT22;5864;52.998;9.068;2022-11-25T12:20:16;8.50;99.90
11617;DHT22;5864;52.998;9.068;2022-11-25T12:22:48;8.60;99.90
11617;DHT22;5864;52.998;9.068;2022-11-25T12:25:19;8.80;99.90
11617;DHT22;5864;52.998;9.068;2022-11-25T12:27:53;8.90;99.90
11617;DHT22;5864;52.998;9.068;2022-11-25T12:30:27;8.90;99.90
11617;DHT22;5864;52.998;9.068;2022-11-25T12:33:00;9.00;99.90
11617;DHT22;5864;52.998;9.068;2022-11-25T12:35:42;9.00;99.90
11617;DHT22;5864;52.998;9.068;2022-11-25T12:38:22;9.00;99.90
11617;DHT22;5864;52.998;9.068;2022-11-25T12:40:58;8.90;99.90
11617;DHT22;5864;52.998;9.068;2022-11-25T12:43:38;8.90;99.90
11617;DHT22;5864;52.998;9.068;2022-11-25T12:46:22;9.00;99.90
11617;DHT22;5864;52.998;9.068;2022-11-25T12:48:51;9.10;99.90
11617;DHT22;5864;52.998;9.068;2022-11-25T12:51:31;9.10;99.90
11617;DHT22;5864;52.998;9.068;2022-11-25T12:54:14;9.20;99.90
11617;DHT22;5864;52.998;9.068;2022-11-25T12:57:07;9.30;99.90
11617;DHT22;5864;52.998;9.068;2022-11-25T12:59:50;9.50;99.90
11617;DHT22;5864;52.998;9.068;2022-11-25T13:05:46;9.60;99.90
11617;DHT22;5864;52.998;9.068;2022-11-25T13:08:27;9.70;99.90
11617;DHT22;5864;52.998;9.068;2022-11-25T13:11:07;9.70;99.90
11617;DHT22;5864;52.998;9.068;2022-11-25T13:13:49;9.70;99.90
11617;DHT22;5864;52.998;9.068;2022-11-25T13:16:20;9.80;99.90
11617;DHT22;5864;52.998;9.068;2022-11-25T13:18:48;9.80;99.90
11617;DHT22;5864;52.998;9.068;2022-11-25T13:21:18;9.70;99.90
11617;DHT22;5864;52.998;9.068;2022-11-25T13:23:49;9.70;99.90
11617;DHT22;5864;52.998;9.068;2022-11-25T13:26:45;9.80;99.90
11617;DHT22;5864;52.998;9.068;2022-11-25T13:32:30;10.00;99.90
11617;DHT22;5864;52.998;9.068;2022-11-25T13:40:56;9.90;99.90
11617;DHT22;5864;52.998;9.068;2022-11-25T13:43:24;9.80;99.90
11617;DHT22;5864;52.998;9.068;2022-11-25T13:45:52;9.80;99.90
11617;DHT22;5864;52.998;9.068;2022-11-25T13:48:24;9.80;99.90
11617;DHT22;5864;52.998;9.068;2022-11-25T13:51:14;9.80;99.90
11617;DHT22;5864;52.998;9.068;2022-11-25T13:53:50;9.90;99.90
11617;DHT22;5864;52.998;9.068;2022-11-25T13:56:26;9.90;99.90
11617;DHT22;5864;52.998;9.068;2022-11-25T13:59:29;9.90;99.90
11617;DHT22;5864;52.998;9.068;2022-11-25T14:08:17;9.90;99.90
11617;DHT22;5864;52.998;9.068;2022-11-25T14:10:54;9.80;99.90
11617;DHT22;5864;52.998;9.068;2022-11-25T14:13:54;9.80;99.90
11617;DHT22;5864;52.998;9.068;2022-11-25T14:16:40;9.90;99.90
11617;DHT22;5864;52.998;9.068;2022-11-25T14:19:32;9.80;99.90
11617;DHT22;5864;52.998;9.068;2022-11-25T14:22:22;9.70;99.90
11617;DHT22;5864;52.998;9.068;2022-11-25T14:24:53;9.60;99.90
11617;DHT22;5864;52.998;9.068;2022-11-25T14:27:28;10.60;99.90
11617;DHT22;5864;52.998;9.068;2022-11-25T14:29:59;9.60;99.90
11617;DHT22;5864;52.998;9.068;2022-11-25T14:32:32;9.50;99.90
11617;DHT22;5864;52.998;9.068;2022-11-25T14:35:07;9.50;99.90
11617;DHT22;5864;52.998;9.068;2022-11-25T14:37:40;9.40;99.90
11617;DHT22;5864;52.998;9.068;2022-11-25T14:40:14;9.40;99.90
11617;DHT22;5864;52.998;9.068;2022-11-25T14:42:47;9.30;99.90
11617;DHT22;5864;52.998;9.068;2022-11-25T14:45:20;9.20;99.90
11617;DHT22;5864;52.998;9.068;2022-11-25T14:47:49;9.20;99.90
11617;DHT22;5864;52.998;9.068;2022-11-25T14:50:17;9.10;99.90
11617;DHT22;5864;52.998;9.068;2022-11-25T14:52:46;9.00;99.90
11617;DHT22;5864;52.998;9.068;2022-11-25T14:55:23;9.00;99.90
11617;DHT22;5864;52.998;9.068;2022-11-25T14:57:52;8.90;99.90
11617;DHT22;5864;52.998;9.068;2022-11-25T15:00:21;8.80;99.90
11617;DHT22;5864;52.998;9.068;2022-11-25T15:02:53;8.80;99.90
11617;DHT22;5864;52.998;9.068;2022-11-25T15:05:23;8.80;99.90
11617;DHT22;5864;52.998;9.068;2022-11-25T15:08:09;8.80;99.90
11617;DHT22;5864;52.998;9.068;2022-11-25T15:10:42;8.80;99.90
11617;DHT22;5864;52.998;9.068;2022-11-25T15:13:19;8.80;99.90
11617;DHT22;5864;52.998;9.068;2022-11-25T15:15:49;8.70;99.90
11617;DHT22;5864;52.998;9.068;2022-11-25T15:18:20;8.70;99.90
11617;DHT22;5864;52.998;9.068;2022-11-25T15:20:49;8.70;99.90
11617;DHT22;5864;52.998;9.068;2022-11-25T15:23:28;8.60;99.90
11617;DHT22;5864;52.998;9.068;2022-11-25T15:26:00;8.60;99.90
11617;DHT22;5864;52.998;9.068;2022-11-25T15:28:33;8.50;99.90
11617;DHT22;5864;52.998;9.068;2022-11-25T15:31:06;8.40;99.90
11617;DHT22;5864;52.998;9.068;2022-11-25T15:33:35;8.40;99.90
11617;DHT22;5864;52.998;9.068;2022-11-25T15:36:03;8.30;99.90
11617;DHT22;5864;52.998;9.068;2022-11-25T15:38:38;8.20;99.90
11617;DHT22;5864;52.998;9.068;2022-11-25T15:41:18;8.20;99.90
11617;DHT22;5864;52.998;9.068;2022-11-25T15:43:48;8.20;99.90
11617;DHT22;5864;52.998;9.068;2022-11-25T15:46:16;8.20;99.90
11617;DHT22;5864;52.998;9.068;2022-11-25T15:48:46;8.20;99.90
11617;DHT22;5864;52.998;9.068;2022-11-25T15:51:26;8.20;99.90
11617;DHT22;5864;52.998;9.068;2022-11-25T15:53:59;8.20;99.90
11617;DHT22;5864;52.998;9.068;2022-11-25T15:56:28;8.20;99.90
11617;DHT22;5864;52.998;9.068;2022-11-25T15:58:58;8.20;99.90
11617;DHT22;5864;52.998;9.068;2022-11-25T16:01:27;8.10;99.90
11617;DHT22;5864;52.998;9.068;2022-11-25T16:04:09;8.10;99.90
11617;DHT22;5864;52.998;9.068;2022-11-25T16:06:52;8.00;99.90
11617;DHT22;5864;52.998;9.068;2022-11-25T16:09:23;8.00;99.90
11617;DHT22;5864;52.998;9.068;2022-11-25T16:12:03;8.00;99.90
11617;DHT22;5864;52.998;9.068;2022-11-25T16:14:34;8.00;99.90
11617;DHT22;5864;52.998;9.068;2022-11-25T16:17:04;8.00;99.90
11617;DHT22;5864;52.998;9.068;2022-11-25T16:19:40;8.00;99.90
11617;DHT22;5864;52.998;9.068;2022-11-25T16:22:11;8.00;99.90
11617;DHT22;5864;52.998;9.068;2022-11-25T16:24:49;8.00;99.90
11617;DHT22;5864;52.998;9.068;2022-11-25T16:27:20;8.00;99.90
11617;DHT22;5864;52.998;9.068;2022-11-25T16:29:53;8.00;99.90
11617;DHT22;5864;52.998;9.068;2022-11-25T16:32:23;8.00;99.90
11617;DHT22;5864;52.998;9.068;2022-11-25T16:34:51;8.10;99.90
11617;DHT22;5864;52.998;9.068;2022-11-25T16:37:21;8.10;99.90
11617;DHT22;5864;52.998;9.068;2022-11-25T16:39:50;8.10;99.90
11617;DHT22;5864;52.998;9.068;2022-11-25T16:42:20;8.20;99.90
11617;DHT22;5864;52.998;9.068;2022-11-25T16:44:49;8.10;99.90
11617;DHT22;5864;52.998;9.068;2022-11-25T16:47:18;8.20;99.90
11617;DHT22;5864;52.998;9.068;2022-11-25T16:49:45;8.20;99.90
11617;DHT22;5864;52.998;9.068;2022-11-25T16:52:13;8.20;99.90